Time;durP1;ratioP1;P1;durP2;ratioP2;P2;SDS_P1;SDS_P2;PMS_P1;PMS_P2;Temp;Humidity;BMP_temperature;BMP_pressure;BME280_temperature;BME280_humidity;BME280_pressure;Samples;Min_cycle;Max_cycle;Signal;HPM_P1;HPM_P2
2024/02/08 00:00:22;;;;;;;11.15;3.15;;;;;;;-0.94;100.00;100349.44;4919075;29;20038;-72
2024/02/08 00:02:48;;;;;;;7.97;3.15;;;;;;;-0.94;100.00;100344.16;4910113;29;20032;-74
2024/02/08 00:05:14;;;;;;;11.13;3.67;;;;;;;-0.99;100.00;100351.84;4930476;28;20460;-74
2024/02/08 00:07:40;;;;;;;10.77;3.63;;;;;;;-1.02;100.00;100354.88;4909917;29;20104;-73
2024/02/08 00:10:08;;;;;;;9.57;3.38;;;;;;;-1.03;100.00;100363.78;4907374;29;20074;-74
2024/02/08 00:12:41;;;;;;;12.65;3.60;;;;;;;-1.03;100.00;100362.97;4921279;29;20652;-74
2024/02/08 00:15:09;;;;;;;10.57;3.55;;;;;;;-1.04;100.00;100350.84;4909938;29;20094;-73
2024/02/08 00:17:35;;;;;;;9.23;3.08;;;;;;;-1.03;100.00;100355.88;4922182;29;20039;-72
2024/02/08 00:20:02;;;;;;;11.35;3.25;;;;;;;-1.03;100.00;100357.72;4916930;29;20039;-73
2024/02/08 00:22:27;;;;;;;8.48;3.50;;;;;;;-1.07;100.00;100349.44;4900621;29;20028;-75
2024/02/08 00:24:55;;;;;;;14.10;3.65;;;;;;;-1.13;100.00;100353.69;4919803;29;20814;-74
2024/02/08 00:27:21;;;;;;;11.40;3.63;;;;;;;-1.15;100.00;100349.66;4901289;29;20541;-72
2024/02/08 00:29:47;;;;;;;9.52;4.03;;;;;;;-1.20;100.00;100363.38;4916935;29;20044;-73
2024/02/08 00:32:12;;;;;;;10.18;3.17;;;;;;;-1.21;100.00;100359.13;4923649;29;20035;-75
2024/02/08 00:34:40;;;;;;;13.63;3.38;;;;;;;-1.26;100.00;100358.94;4926791;29;20047;-72
2024/02/08 00:37:07;;;;;;;12.80;3.55;;;;;;;-1.29;100.00;100340.13;4934224;28;20076;-72
2024/02/08 00:39:33;;;;;;;9.18;3.10;;;;;;;-1.29;100.00;100340.13;4902514;29;20031;-72
2024/02/08 00:41:59;;;;;;;8.20;3.17;;;;;;;-1.28;100.00;100331.25;4918038;29;20047;-73
2024/02/08 00:44:27;;;;;;;9.82;2.70;;;;;;;-1.30;100.00;100336.69;4928455;29;20394;-72
2024/02/08 00:46:56;;;;;;;11.50;4.15;;;;;;;-1.30;100.00;100343.75;4925740;29;20043;-74
2024/02/08 00:49:22;;;;;;;10.48;3.10;;;;;;;-1.31;100.00;100335.06;4905512;29;20063;-73
2024/02/08 00:51:49;;;;;;;10.15;3.17;;;;;;;-1.27;100.00;100332.84;4899331;29;20036;-74
2024/02/08 00:54:17;;;;;;;8.48;2.72;;;;;;;-1.28;100.00;100337.31;4905468;29;20492;-74
2024/02/08 00:56:43;;;;;;;9.23;2.65;;;;;;;-1.25;100.00;100343.97;4907980;29;20543;-73
2024/02/08 00:59:10;;;;;;;9.32;2.65;;;;;;;-1.27;100.00;100331.03;4916231;29;20047;-74
2024/02/08 01:01:39;;;;;;;12.80;3.10;;;;;;;-1.26;100.00;100331.84;4895018;29;20118;-73
2024/02/08 01:04:07;;;;;;;10.55;2.78;;;;;;;-1.28;100.00;100329.44;4920080;29;20122;-73
2024/02/08 01:06:33;;;;;;;7.70;2.72;;;;;;;-1.31;100.00;100327.19;4905491;29;20123;-72
2024/02/08 01:08:59;;;;;;;9.05;3.00;;;;;;;-1.35;100.00;100327.78;4904367;29;20134;-73
2024/02/08 01:11:24;;;;;;;9.88;2.75;;;;;;;-1.35;100.00;100327.78;4902294;29;20549;-72
2024/02/08 01:13:52;;;;;;;11.38;3.38;;;;;;;-1.39;100.00;100322.13;4896729;29;20048;-72
2024/02/08 01:16:18;;;;;;;11.65;2.60;;;;;;;-1.36;100.00;100324.34;4935047;28;20123;-72
2024/02/08 01:18:44;;;;;;;7.63;2.10;;;;;;;-1.35;100.00;100317.28;4915773;29;20131;-73
2024/02/08 01:21:10;;;;;;;9.07;3.08;;;;;;;-1.34;100.00;100308.41;4886507;29;20063;-73
2024/02/08 01:23:40;;;;;;;7.90;2.22;;;;;;;-1.31;100.00;100308.00;4918423;29;20036;-74
2024/02/08 01:26:08;;;;;;;7.63;2.53;;;;;;;-1.29;100.00;100305.97;4921764;29;20036;-73
2024/02/08 01:28:34;;;;;;;10.82;2.30;;;;;;;-1.25;100.00;100310.63;4918939;29;20505;-73
2024/02/08 01:31:01;;;;;;;14.32;3.10;;;;;;;-1.24;100.00;100306.16;4918607;29;20071;-73
2024/02/08 01:33:26;;;;;;;;;;;;;;;-1.21;100.00;100305.78;4917721;29;20630;-72
2024/02/08 01:35:52;;;;;;;9.23;2.63;;;;;;;-1.21;100.00;100306.59;4925095;29;20008;-73
2024/02/08 01:38:18;;;;;;;12.93;2.70;;;;;;;-1.18;100.00;100308.00;4917496;29;20038;-74
2024/02/08 01:40:44;;;;;;;7.93;2.80;;;;;;;-1.17;100.00;100306.97;4896049;29;20042;-74
2024/02/08 01:43:13;;;;;;;10.23;3.13;;;;;;;-1.16;100.00;100298.88;4918539;29;20067;-74
2024/02/08 01:45:40;;;;;;;8.45;2.60;;;;;;;-1.13;100.00;100302.94;4919656;29;20056;-73
2024/02/08 01:48:10;;;;;;;9.48;2.30;;;;;;;-1.12;100.00;100301.91;4915329;29;20501;-74
2024/02/08 01:50:41;;;;;;;13.63;2.65;;;;;;;-1.12;100.00;100296.66;4905932;29;20036;-74
2024/02/08 01:53:13;;;;;;;6.93;1.85;;;;;;;-1.11;100.00;100299.09;4909091;29;20051;-73
2024/02/08 01:55:40;;;;;;;8.93;2.53;;;;;;;-1.09;100.00;100301.50;4926580;29;20059;-73
2024/02/08 01:58:07;;;;;;;8.60;2.88;;;;;;;-1.07;100.00;100289.00;4925673;29;20039;-74
2024/02/08 02:00:36;;;;;;;9.77;2.63;;;;;;;-1.05;100.00;100289.59;4919127;29;20074;-74
2024/02/08 02:03:11;;;;;;;8.23;3.42;;;;;;;-1.05;100.00;100291.41;4912965;23;20055;-74
2024/02/08 02:05:42;;;;;;;7.43;2.70;;;;;;;-1.05;100.00;100286.94;4962304;28;20059;-76
2024/02/08 02:08:12;;;;;;;7.95;2.70;;;;;;;-1.04;100.00;100277.25;4918286;29;20040;-77
2024/02/08 02:10:38;;;;;;;7.07;2.60;;;;;;;-1.03;100.00;100282.28;4932212;29;20043;-75
2024/02/08 02:13:08;;;;;;;10.20;3.50;;;;;;;-1.07;100.00;100283.72;4936878;28;20243;-73
2024/02/08 02:15:35;;;;;;;8.45;2.15;;;;;;;-1.12;100.00;100270.38;4929379;29;20496;-75
2024/02/08 02:18:01;;;;;;;;;;;;;;;-1.15;100.00;100279.50;4924148;29;20146;-75
2024/02/08 02:20:29;;;;;;;7.72;2.40;;;;;;;-1.18;100.00;100281.72;4911066;29;19918;-77
2024/02/08 02:23:00;;;;;;;9.45;2.88;;;;;;;-1.20;100.00;100273.22;4922864;29;20039;-73
2024/02/08 02:25:27;;;;;;;11.88;2.88;;;;;;;-1.25;100.00;100271.22;4942389;28;20130;-74
2024/02/08 02:27:55;;;;;;;9.63;3.42;;;;;;;-1.29;100.00;100274.44;4905053;29;20051;-76
2024/02/08 02:30:22;;;;;;;4.45;2.60;;;;;;;-1.31;100.00;100272.00;4922493;29;20051;-78
2024/02/08 02:32:52;;;;;;;11.73;2.78;;;;;;;-1.31;100.00;100266.75;4907959;29;20417;-76
2024/02/08 02:35:18;;;;;;;9.70;2.78;;;;;;;-1.31;100.00;100261.50;4923598;29;20039;-78
2024/02/08 02:37:45;;;;;;;7.85;2.72;;;;;;;-1.30;100.00;100262.31;4919475;29;20071;-78
2024/02/08 02:40:22;;;;;;;11.13;3.33;;;;;;;-1.31;100.00;100255.44;4912765;29;20449;-77
2024/02/08 02:42:51;;;;;;;9.57;2.90;;;;;;;-1.30;100.00;100255.25;4922410;29;20650;-76
2024/02/08 02:45:24;;;;;;;8.68;2.83;;;;;;;-1.29;100.00;100253.41;4923697;29;20047;-76
2024/02/08 02:47:53;;;;;;;9.23;2.40;;;;;;;-1.27;100.00;100262.72;4926160;29;20126;-78
2024/02/08 02:50:28;;;;;;;11.85;2.47;;;;;;;-1.23;100.00;100258.66;4922513;29;20099;-76
2024/02/08 02:52:54;;;;;;;9.00;2.83;;;;;;;-1.20;100.00;100258.28;4924296;29;20046;-76
2024/02/08 02:55:22;;;;;;;8.55;2.25;;;;;;;-1.19;100.00;100262.50;4923637;29;20032;-77
2024/02/08 02:57:48;;;;;;;8.63;2.20;;;;;;;-1.18;100.00;100263.31;4924028;29;20039;-77
2024/02/08 03:00:33;;;;;;;10.60;2.55;;;;;;;-1.15;100.00;100255.84;4922702;29;20034;-77
2024/02/08 03:03:07;;;;;;;11.13;2.75;;;;;;;-1.08;100.00;100274.25;4923673;29;20528;-76
2024/02/08 03:05:34;;;;;;;7.82;2.35;;;;;;;-1.01;100.00;100267.16;4924496;29;20044;-77
2024/02/08 03:08:04;;;;;;;7.65;2.58;;;;;;;-0.96;100.00;100264.69;4936000;28;20071;-76
2024/02/08 03:10:32;;;;;;;7.82;2.03;;;;;;;-0.94;100.00;100262.69;4907278;29;20044;-77
2024/02/08 03:12:58;;;;;;;6.00;1.90;;;;;;;-0.92;100.00;100263.28;4919715;29;20039;-75
2024/02/08 03:15:24;;;;;;;9.73;2.50;;;;;;;-0.89;100.00;100260.22;4923358;29;20047;-77
2024/02/08 03:17:50;;;;;;;8.02;2.10;;;;;;;-0.87;100.00;100268.72;4935681;28;20151;-76
2024/02/08 03:20:29;;;;;;;5.60;2.25;;;;;;;-0.86;100.00;100265.09;4901983;29;20076;-76
2024/02/08 03:22:58;;;;;;;7.43;2.08;;;;;;;-0.87;100.00;100258.22;4922240;29;20043;-77
2024/02/08 03:25:30;;;;;;;8.07;1.90;;;;;;;-0.87;100.00;100252.16;4918452;29;20493;-76
2024/02/08 03:27:56;;;;;;;6.93;1.77;;;;;;;-0.86;100.00;100251.13;4919753;29;20114;-78
2024/02/08 03:30:31;;;;;;;9.52;1.73;;;;;;;-0.87;100.00;100257.41;4926523;29;20536;-78
2024/02/08 03:32:58;;;;;;;4.88;1.92;;;;;;;-0.86;100.00;100259.81;4929725;29;20078;-77
2024/02/08 03:35:36;;;;;;;;;;;;;;;-0.84;100.00;100260.41;4911285;29;20039;-77
2024/02/08 03:38:02;;;;;;;9.18;2.42;;;;;;;-0.79;100.00;100253.75;4915251;29;19919;-77
2024/02/08 03:40:32;;;;;;;7.82;1.80;;;;;;;-0.77;100.00;100249.88;4925638;29;20421;-77
2024/02/08 03:42:59;;;;;;;6.57;2.17;;;;;;;-0.74;100.00;100256.56;4921804;29;20060;-77
2024/02/08 03:45:28;;;;;;;8.70;1.67;;;;;;;-0.72;100.00;100249.28;4938363;28;20051;-78
2024/02/08 03:48:01;;;;;;;4.28;1.77;;;;;;;-0.72;100.00;100244.81;4922152;29;20143;-78
2024/02/08 03:50:33;;;;;;;7.75;2.10;;;;;;;-0.70;100.00;100248.03;4923013;29;20273;-75
2024/02/08 03:53:03;;;;;;;5.90;2.13;;;;;;;-0.69;100.00;100238.31;4920062;29;20513;-76
2024/02/08 03:55:29;;;;;;;6.30;1.70;;;;;;;-0.69;100.00;100238.31;4923599;29;20557;-77
2024/02/08 03:58:06;;;;;;;5.93;2.05;;;;;;;-0.70;100.00;100236.72;4926814;29;20064;-76
2024/02/08 04:00:33;;;;;;;8.45;1.90;;;;;;;-0.69;100.00;100238.31;4907896;29;20044;-76
2024/02/08 04:03:04;;;;;;;9.02;2.63;;;;;;;-0.71;100.00;100240.38;4930672;28;20047;-76
2024/02/08 04:05:58;;;;;;;7.82;1.80;;;;;;;-0.69;100.00;100238.31;4922737;29;20042;-76
2024/02/08 04:54:37;;;;;;;4.85;1.48;;;;;;;-0.53;100.00;100235.25;4923164;29;20040;-77
2024/02/08 04:57:03;;;;;;;6.75;2.33;;;;;;;-0.52;100.00;100239.47;4920893;29;20055;-76
2024/02/08 04:59:29;;;;;;;7.13;2.20;;;;;;;-0.51;100.00;100238.47;4914856;29;20066;-77
2024/02/08 05:01:55;;;;;;;8.73;2.30;;;;;;;-0.50;100.00;100231.38;4918575;29;20039;-77
2024/02/08 05:04:21;;;;;;;7.03;2.30;;;;;;;-0.52;100.00;100228.97;4923989;29;20699;-76
2024/02/08 05:06:48;;;;;;;4.07;1.70;;;;;;;-0.50;100.00;100231.38;4922487;29;20040;-76
2024/02/08 05:09:19;;;;;;;8.02;2.10;;;;;;;-0.53;100.00;100222.09;4908306;29;20063;-76
2024/02/08 05:11:45;;;;;;;6.25;1.90;;;;;;;-0.52;100.00;100215.81;4937661;28;20467;-77
2024/02/08 05:14:11;;;;;;;6.90;2.70;;;;;;;-0.52;100.00;100228.97;4923171;29;20083;-76
2024/02/08 05:16:37;;;;;;;8.23;2.22;;;;;;;-0.52;100.00;100221.06;4933172;28;20049;-76
2024/02/08 05:19:09;;;;;;;8.48;2.53;;;;;;;-0.52;100.00;100228.97;4939087;28;20047;-76
2024/02/08 05:21:40;;;;;;;8.90;2.70;;;;;;;-0.53;100.00;100227.34;4919583;29;20059;-76
2024/02/08 05:24:12;;;;;;;9.25;2.65;;;;;;;-0.53;100.00;100232.63;4921610;29;20042;-76
2024/02/08 05:26:40;;;;;;;8.80;2.33;;;;;;;-0.52;100.00;100234.22;4911040;29;20044;-76
2024/02/08 05:29:08;;;;;;;7.85;3.22;;;;;;;-0.52;100.00;100239.47;4921423;29;20697;-76
2024/02/08 05:31:39;;;;;;;8.23;3.00;;;;;;;-0.55;100.00;100245.16;4921239;29;20040;-76
2024/02/08 05:34:10;;;;;;;6.50;2.28;;;;;;;-0.55;100.00;100242.50;4923720;29;20217;-76
2024/02/08 05:36:39;;;;;;;10.93;2.83;;;;;;;-0.56;100.00;100238.28;4919530;29;20143;-76
2024/02/08 05:39:12;;;;;;;12.27;2.88;;;;;;;-0.57;100.00;100229.56;4922948;29;20044;-76
2024/02/08 05:41:44;;;;;;;7.45;2.20;;;;;;;-0.57;100.00;100229.56;4931189;28;20039;-76
2024/02/08 05:44:12;;;;;;;11.05;3.05;;;;;;;-0.56;100.00;100231.19;4936324;28;20159;-76
2024/02/08 05:46:38;;;;;;;5.55;1.92;;;;;;;-0.52;100.00;100228.97;4919934;29;20593;-76
2024/02/08 05:49:11;;;;;;;7.18;2.50;;;;;;;-0.50;100.00;100240.06;4922400;29;20035;-77
2024/02/08 05:51:46;;;;;;;5.88;2.20;;;;;;;-0.49;100.00;100244.31;4923723;29;20040;-75
2024/02/08 05:54:16;;;;;;;6.28;2.45;;;;;;;-0.48;100.00;100243.28;4938284;28;20035;-75
2024/02/08 05:56:43;;;;;;;7.05;1.92;;;;;;;-0.48;100.00;100240.66;4922437;29;20501;-76
2024/02/08 05:59:09;;;;;;;9.70;2.72;;;;;;;-0.44;100.00;100241.06;4924722;29;20098;-76
2024/02/08 06:01:47;;;;;;;9.15;2.72;;;;;;;-0.43;100.00;100237.41;4912468;29;20437;-76
2024/02/08 06:04:25;;;;;;;5.57;2.53;;;;;;;-0.43;100.00;100238.22;4923900;29;20047;-76
2024/02/08 06:07:07;;;;;;;;;;;;;;;-0.43;100.00;100232.94;4925785;29;20040;-76
2024/02/08 06:12:42;;;;;;;8.48;2.78;;;;;;;-0.45;100.00;100242.88;4919217;29;20040;-77
2024/02/08 06:15:21;;;;;;;5.82;2.13;;;;;;;-0.44;100.00;100233.16;4920998;29;20043;-76
2024/02/08 06:20:59;;;;;;;5.65;2.00;;;;;;;-0.46;100.00;100229.94;4922826;29;20054;-76
2024/02/08 06:23:34;;;;;;;8.55;2.60;;;;;;;-0.46;100.00;100229.94;4927292;29;20452;-76
2024/02/08 06:28:52;;;;;;;9.23;2.17;;;;;;;-0.46;100.00;100228.13;4928957;29;20493;-77
2024/02/08 06:31:19;;;;;;;9.77;2.70;;;;;;;-0.46;100.00;100233.38;4921447;29;20032;-76
2024/02/08 06:36:34;;;;;;;9.23;2.15;;;;;;;-0.44;100.00;100233.97;4938908;28;20073;-77
2024/02/08 06:39:20;;;;;;;7.35;2.35;;;;;;;-0.43;100.00;100237.41;4925594;29;20175;-77
2024/02/08 06:41:55;;;;;;;9.35;2.20;;;;;;;-0.43;100.00;100243.47;4922684;29;20060;-76
2024/02/08 06:44:42;;;;;;;6.78;2.67;;;;;;;-0.43;100.00;100238.22;4904888;29;20071;-75
2024/02/08 07:39:30;;;;;;;8.13;2.80;;;;;;;-0.22;100.00;100213.41;4924023;29;20035;-76
2024/02/08 07:42:00;;;;;;;9.20;2.70;;;;;;;-0.20;100.00;100210.56;4919392;29;20047;-75
2024/02/08 07:44:30;;;;;;;11.85;3.50;;;;;;;-0.18;100.00;100219.06;4933789;28;20043;-75
2024/02/08 07:46:56;;;;;;;7.22;2.63;;;;;;;-0.15;100.00;100224.72;4926552;29;20418;-77
2024/02/08 07:49:42;;;;;;;11.18;3.10;;;;;;;-0.10;100.00;100239.88;4929945;29;20094;-76
2024/02/08 07:52:19;;;;;;;8.68;3.38;;;;;;;-0.06;100.00;100241.88;4918841;29;20032;-75
2024/02/08 07:55:14;;;;;;;8.05;2.50;;;;;;;-0.03;100.00;100238.00;4921715;29;20043;-75
2024/02/08 07:57:48;;;;;;;6.55;2.42;;;;;;;-0.01;100.00;100235.97;4912264;29;20062;-75
2024/02/08 08:03:00;;;;;;;9.90;2.95;;;;;;;0.05;100.00;100243.00;4922112;29;20572;-76
2024/02/08 08:05:31;;;;;;;;;;;;;;;0.09;100.00;100240.78;4922119;29;20497;-76
2024/02/08 08:08:01;;;;;;;8.68;3.22;;;;;;;0.12;100.00;100225.34;4925138;29;19962;-76
2024/02/08 08:10:38;;;;;;;8.68;3.58;;;;;;;0.13;100.00;100232.22;4922816;29;20119;-76
2024/02/08 08:13:06;;;;;;;8.60;2.88;;;;;;;0.14;100.00;100233.84;4919037;29;20049;-77
2024/02/08 08:15:49;;;;;;;9.18;2.58;;;;;;;0.16;100.00;100229.16;4921310;29;20047;-74
2024/02/08 08:18:29;;;;;;;8.18;3.03;;;;;;;0.21;100.00;100224.06;4910340;29;20077;-76
2024/02/08 08:20:58;;;;;;;7.35;2.47;;;;;;;0.25;100.00;100225.25;4939793;28;20031;-76
2024/02/08 08:23:25;;;;;;;9.02;3.30;;;;;;;0.29;100.00;100214.28;4927960;29;20133;-77
2024/02/08 08:26:39;;;;;;;9.43;2.85;;;;;;;0.28;100.00;100218.75;4938075;28;20036;-76
2024/02/08 08:29:02;;;;;;;8.80;2.53;;;;;;;0.29;100.00;100216.94;4922032;29;20411;-76
2024/02/08 08:31:46;;;;;;;7.53;3.22;;;;;;;0.31;100.00;100214.88;4908637;29;20032;-76
2024/02/08 08:35:37;;;;;;;6.85;2.85;;;;;;;0.31;100.00;100220.16;4922118;29;20044;-77
2024/02/08 08:37:38;;;;;;;7.68;3.17;;;;;;;0.34;100.00;100224.97;4918058;29;20042;-76
2024/02/08 08:42:37;;;;;;;9.82;3.03;;;;;;;0.39;100.00;100219.88;4923554;29;20046;-76
2024/02/08 08:45:04;;;;;;;10.02;3.78;;;;;;;0.38;100.00;100213.81;4907416;29;20036;-77
2024/02/08 08:47:30;;;;;;;10.20;3.97;;;;;;;0.41;100.00;100209.94;4912436;29;20091;-77
2024/02/08 08:49:56;;;;;;;13.57;4.60;;;;;;;0.42;100.00;100211.56;4924528;29;20043;-77
2024/02/08 08:52:25;;;;;;;11.90;4.45;;;;;;;0.43;100.00;100200.00;4919614;29;20039;-77
2024/02/08 08:55:01;;;;;;;9.88;3.53;;;;;;;0.46;100.00;100207.44;4924498;29;20138;-77
2024/02/08 08:57:27;;;;;;;6.95;3.67;;;;;;;0.46;100.00;100192.44;4923974;29;20509;-76
2024/02/08 08:59:56;;;;;;;10.50;3.97;;;;;;;0.49;100.00;100201.75;4922969;29;20031;-77
2024/02/08 09:02:22;;;;;;;8.77;3.33;;;;;;;0.51;100.00;100197.06;4918696;29;20039;-77
2024/02/08 09:04:51;;;;;;;11.80;3.92;;;;;;;0.51;100.00;100197.06;4934219;28;20047;-77
2024/02/08 09:07:18;;;;;;;13.00;3.25;;;;;;;0.53;100.00;100195.03;4935469;28;20039;-76
2024/02/08 09:10:00;;;;;;;8.73;2.95;;;;;;;0.54;100.00;100197.47;4925276;29;20035;-76
2024/02/08 09:12:30;;;;;;;8.90;3.20;;;;;;;0.58;100.00;100203.09;4907336;29;20031;-77
2024/02/08 09:15:19;;;;;;;10.40;3.40;;;;;;;0.58;100.00;100203.09;4926634;29;20165;-77
2024/02/08 09:17:51;;;;;;;9.23;3.40;;;;;;;0.61;100.00;100218.47;4923375;29;20039;-77
2024/02/08 09:20:22;;;;;;;13.02;4.10;;;;;;;0.62;100.00;100206.91;4918027;29;20040;-76
2024/02/08 09:22:52;;;;;;;8.27;3.45;;;;;;;0.66;100.00;100189.63;4925472;29;20044;-77
2024/02/08 09:25:22;;;;;;;15.70;3.90;;;;;;;0.68;100.00;100192.06;4933468;28;20506;-76
2024/02/08 09:27:53;;;;;;;8.70;3.53;;;;;;;0.66;100.00;100183.56;4926900;29;20086;-76
2024/02/08 09:30:37;;;;;;;12.63;4.50;;;;;;;0.69;100.00;100189.22;4921548;29;20039;-77
2024/02/08 09:33:12;;;;;;;8.90;3.83;;;;;;;0.72;100.00;100182.69;4936273;28;20122;-77
2024/02/08 09:35:42;;;;;;;12.73;3.47;;;;;;;0.74;100.00;100191.97;4915038;29;20051;-77
2024/02/08 09:38:09;;;;;;;8.45;3.85;;;;;;;0.79;100.00;100196.59;4937854;28;20027;-77
2024/02/08 09:40:45;;;;;;;8.77;4.18;;;;;;;0.82;100.00;100194.34;4925963;29;21841;-76
2024/02/08 09:43:17;;;;;;;9.27;3.80;;;;;;;0.80;100.00;100177.94;4923784;29;20494;-76
2024/02/08 09:45:44;;;;;;;11.48;4.03;;;;;;;0.83;100.00;100176.69;4940955;28;20039;-76
2024/02/08 09:48:15;;;;;;;12.23;4.07;;;;;;;0.90;100.00;100184.53;4926493;29;20039;-76
2024/02/08 09:50:50;;;;;;;9.63;4.20;;;;;;;0.94;100.00;100183.06;4924563;29;20040;-77
2024/02/08 09:53:27;;;;;;;7.53;3.90;;;;;;;0.97;100.00;100175.53;4897537;29;20044;-76
2024/02/08 09:55:55;;;;;;;10.13;4.15;;;;;;;0.97;100.00;100175.53;4924663;29;20127;-77
2024/02/08 09:58:35;;;;;;;13.05;4.65;;;;;;;1.03;100.00;100171.22;4922175;29;20770;-76
2024/02/08 10:01:02;;;;;;;10.93;3.70;;;;;;;1.07;100.00;100169.72;4937955;28;20142;-76
2024/02/08 10:03:31;;;;;;;11.60;4.45;;;;;;;1.14;100.00;100167.81;4909076;29;20032;-77
2024/02/08 10:06:12;;;;;;;14.45;3.70;;;;;;;1.18;100.00;100171.63;4925471;29;20513;-77
2024/02/08 10:09:08;;;;;;;12.68;4.20;;;;;;;1.25;100.00;100161.78;4932822;29;21185;-77
2024/02/08 10:11:44;;;;;;;8.57;4.53;;;;;;;1.25;100.00;100169.72;4922254;29;20095;-76
2024/02/08 10:14:32;;;;;;;9.77;4.25;;;;;;;1.30;100.00;100169.84;4941185;28;20035;-74
2024/02/08 10:17:17;;;;;;;12.68;4.10;;;;;;;1.36;100.00;100178.72;4921495;29;20135;-74
2024/02/08 10:22:53;;;;;;;12.80;4.25;;;;;;;1.38;100.00;100175.84;4919985;29;20150;-73
2024/02/08 10:28:21;;;;;;;9.20;4.18;;;;;;;1.42;100.00;100177.00;4942553;28;20036;-74
2024/02/08 10:30:57;;;;;;;12.88;4.45;;;;;;;1.41;100.00;100163.00;4926659;29;20118;-74
2024/02/08 10:33:24;;;;;;;11.35;3.95;;;;;;;1.45;100.00;100168.66;4927931;29;20121;-73
2024/02/08 10:36:00;;;;;;;9.27;3.80;;;;;;;1.49;100.00;100167.16;4921243;29;20043;-74
2024/02/08 10:38:29;;;;;;;13.10;4.57;;;;;;;1.50;100.00;100166.16;4917470;29;20051;-74
2024/02/08 10:41:11;;;;;;;11.13;3.75;;;;;;;1.55;100.00;100182.09;4903389;29;20031;-74
2024/02/08 10:43:38;;;;;;;13.38;4.78;;;;;;;1.51;100.00;100149.28;4937782;28;20058;-74
2024/02/08 10:46:16;;;;;;;12.20;4.40;;;;;;;1.58;100.00;100160.56;4925953;29;20027;-74
2024/02/08 10:48:43;;;;;;;10.32;3.72;;;;;;;1.64;100.00;100160.47;4947400;28;20031;-74
2024/02/08 10:51:12;;;;;;;13.02;4.68;;;;;;;1.68;100.00;100155.53;4930029;29;20059;-74
2024/02/08 10:53:45;;;;;;;8.90;4.20;;;;;;;1.67;100.00;100142.56;4933289;28;20036;-73
2024/02/08 10:56:16;;;;;;;12.07;4.03;;;;;;;1.69;100.00;100143.94;4908228;29;20485;-74
2024/02/08 11:01:37;;;;;;;13.13;4.28;;;;;;;1.76;100.00;100131.47;4946873;28;20039;-73
2024/02/08 11:04:18;;;;;;;13.85;4.43;;;;;;;1.80;100.00;100129.97;4922392;29;20677;-74
2024/02/08 11:07:17;;;;;;;14.50;4.45;;;;;;;1.86;100.00;100139.63;4938908;28;20031;-73
2024/02/08 11:09:46;;;;;;;13.43;3.80;;;;;;;1.94;100.00;100121.84;4938585;28;20493;-74
2024/02/08 11:12:31;;;;;;;17.35;4.05;;;;;;;1.91;100.00;100125.75;4924990;29;20035;-74
2024/02/08 11:15:30;;;;;;;10.60;4.15;;;;;;;1.89;100.00;100123.31;4929394;29;20413;-73
2024/02/08 11:17:58;;;;;;;10.18;3.60;;;;;;;1.94;100.00;100127.13;4938658;28;20033;-74
2024/02/08 11:20:43;;;;;;;12.93;4.45;;;;;;;1.99;100.00;100121.97;4905282;29;20044;-75
2024/02/08 11:23:11;;;;;;;13.98;3.92;;;;;;;1.94;100.00;100125.28;4923828;29;20130;-74
2024/02/08 11:25:44;;;;;;;10.75;4.45;;;;;;;1.99;100.00;100120.13;4927065;29;20043;-74
2024/02/08 11:28:24;;;;;;;13.25;4.15;;;;;;;2.02;100.00;100124.16;4932000;28;20065;-74
2024/02/08 11:30:51;;;;;;;13.32;4.53;;;;;;;2.04;100.00;100119.47;4922813;29;20082;-73
2024/02/08 11:33:27;;;;;;;;;;;;;;;2.09;100.00;100119.56;4943186;28;20160;-74
2024/02/08 11:36:11;;;;;;;10.95;3.55;;;;;;;2.12;100.00;100119.91;4926275;29;19922;-74
2024/02/08 11:38:40;;;;;;;11.60;4.10;;;;;;;2.16;100.00;100117.59;4941682;28;20126;-74
2024/02/08 11:41:10;;;;;;;10.02;5.10;;;;;;;2.12;100.00;100104.06;4925122;29;20039;-74
2024/02/08 11:43:46;;;;;;;12.38;4.50;;;;;;;2.19;100.00;100103.94;4908411;29;20047;-74
2024/02/08 11:46:20;;;;;;;9.75;3.83;;;;;;;2.21;100.00;100107.16;4924743;29;20067;-75
2024/02/08 11:48:46;;;;;;;12.07;3.97;;;;;;;2.24;100.00;100096.16;4909169;29;20126;-74
2024/02/08 11:51:17;;;;;;;14.52;4.88;;;;;;;2.27;100.00;100090.38;4924997;29;20142;-74
2024/02/08 11:53:44;;;;;;;13.82;4.68;;;;;;;2.25;100.00;100092.47;4919535;29;20055;-73
2024/02/08 11:56:12;;;;;;;15.43;3.92;;;;;;;2.28;100.00;100081.44;4908756;29;20126;-74
2024/02/08 11:58:43;;;;;;;13.80;4.18;;;;;;;2.35;100.00;100082.09;4921175;29;20563;-71
2024/02/08 12:01:13;;;;;;;12.75;4.70;;;;;;;2.38;100.00;100084.31;4922895;29;20111;-73
2024/02/08 12:03:44;;;;;;;12.02;4.55;;;;;;;2.42;100.00;100080.16;4931581;29;20520;-72
2024/02/08 12:06:22;;;;;;;14.52;4.13;;;;;;;2.41;100.00;100078.53;4925064;29;20067;-74
2024/02/08 12:08:59;;;;;;;9.63;4.80;;;;;;;2.43;100.00;100073.00;4933568;29;20505;-71
2024/02/08 12:11:32;;;;;;;11.23;4.28;;;;;;;2.46;100.00;100069.94;4941829;28;20043;-73
2024/02/08 12:14:01;;;;;;;12.88;4.32;;;;;;;2.50;100.00;100067.59;4940613;28;20498;-73
2024/02/08 12:16:29;;;;;;;9.50;3.85;;;;;;;2.44;100.00;100064.88;4928399;29;20144;-73
2024/02/08 12:19:05;;;;;;;14.07;4.15;;;;;;;2.43;100.00;100065.88;4925903;29;20550;-72
2024/02/08 12:21:35;;;;;;;16.25;4.10;;;;;;;2.45;100.00;100061.19;4919222;29;20039;-72
2024/02/08 12:24:03;;;;;;;16.20;5.45;;;;;;;2.47;100.00;100059.13;4910520;29;20514;-75
2024/02/08 12:26:31;;;;;;;13.20;4.30;;;;;;;2.54;100.00;100048.41;4941937;28;20068;-74
2024/02/08 12:29:02;;;;;;;9.77;4.20;;;;;;;2.59;100.00;100056.47;4924510;29;20039;-74
2024/02/08 12:31:34;;;;;;;13.18;4.68;;;;;;;2.61;100.00;100053.56;4916580;29;20414;-74
2024/02/08 12:34:03;;;;;;;15.07;4.28;;;;;;;2.54;100.00;100048.41;4929163;29;20051;-75
2024/02/08 12:36:33;;;;;;;10.07;3.45;;;;;;;2.57;100.00;100047.13;4927425;29;20076;-75
2024/02/08 12:39:01;;;;;;;11.35;4.18;;;;;;;2.62;100.00;100034.81;4918024;29;20059;-75
2024/02/08 12:41:29;;;;;;;10.75;4.50;;;;;;;2.59;100.00;100042.44;4924379;29;20118;-75
2024/02/08 12:43:57;;;;;;;10.13;4.20;;;;;;;2.60;100.00;100047.47;4893647;29;20118;-73
2024/02/08 12:46:24;;;;;;;12.27;4.05;;;;;;;2.57;100.00;100037.34;4924605;29;20043;-75
2024/02/08 12:48:50;;;;;;;11.20;4.30;;;;;;;2.55;100.00;100033.34;4934625;28;20584;-72
2024/02/08 12:51:20;;;;;;;9.52;3.53;;;;;;;2.56;100.00;100032.31;4925015;29;20126;-73
2024/02/08 12:53:49;;;;;;;16.77;4.80;;;;;;;2.61;100.00;100032.44;4923244;29;20131;-73
2024/02/08 12:56:18;;;;;;;20.15;4.68;;;;;;;2.61;100.00;100032.44;4926154;29;20036;-73
2024/02/08 12:58:44;;;;;;;11.85;3.72;;;;;;;2.60;100.00;100036.91;4924005;29;20040;-75
2024/02/08 13:01:14;;;;;;;10.18;4.35;;;;;;;2.62;100.00;100028.75;4906445;29;20122;-74
2024/02/08 13:03:40;;;;;;;15.73;4.93;;;;;;;2.66;100.00;100029.88;4934960;28;20047;-73
2024/02/08 13:06:13;;;;;;;12.50;3.70;;;;;;;2.68;100.00;100022.50;4941586;28;20505;-74
2024/02/08 13:08:44;;;;;;;11.02;3.78;;;;;;;2.72;100.00;100010.44;4932923;28;20039;-72
2024/02/08 13:11:10;;;;;;;16.20;4.15;;;;;;;2.72;100.00;100013.88;4904821;29;20513;-74
2024/02/08 13:13:36;;;;;;;12.63;3.75;;;;;;;2.71;100.00;100016.78;4936511;28;20039;-73
2024/02/08 13:16:08;;;;;;;14.32;4.03;;;;;;;2.74;100.00;100016.28;4918329;28;20043;-74
2024/02/08 13:18:38;;;;;;;13.60;4.88;;;;;;;2.75;100.00;100002.03;4920840;29;20048;-73
2024/02/08 13:21:04;;;;;;;15.13;4.20;;;;;;;2.75;100.00;100002.03;4924114;29;20035;-73
2024/02/08 13:23:33;;;;;;;11.00;3.80;;;;;;;2.76;100.00;100003.63;4919742;29;20042;-74
2024/02/08 13:26:00;;;;;;;10.52;4.55;;;;;;;2.74;100.00;100005.72;4938777;28;20031;-74
2024/02/08 13:28:26;;;;;;;;;;;;;;;2.70;100.00;99994.00;4924739;29;20032;-73
2024/02/08 13:30:53;;;;;;;10.15;4.07;;;;;;;2.66;100.00;99993.69;4915900;29;19933;-73
2024/02/08 13:33:19;;;;;;;11.88;4.40;;;;;;;2.69;100.00;100001.13;4921462;29;20609;-73
2024/02/08 13:35:52;;;;;;;11.23;4.20;;;;;;;2.72;100.00;99991.94;4937393;28;20102;-74
2024/02/08 13:38:22;;;;;;;10.98;4.72;;;;;;;2.67;100.00;99989.19;4920175;29;20078;-71
2024/02/08 13:40:52;;;;;;;10.73;4.20;;;;;;;2.67;100.00;99984.69;4938768;28;20036;-74